Time;durP1;ratioP1;P1;durP2;ratioP2;P2;SDS_P1;SDS_P2;PMS_P1;PMS_P2;Temp;Humidity;BMP_temperature;BMP_pressure;BME280_temperature;BME280_humidity;BME280_pressure;Samples;Min_cycle;Max_cycle;Signal;HPM_P1;HPM_P2
2022/03/08 00:02:03;;;;;;;44.87;19.00;;;0.00;99.90;;;;;;10410580;28;20722;-83
2022/03/08 00:07:03;;;;;;;45.00;18.33;;;-0.10;99.90;;;;;;10408592;28;20136;-82
2022/03/08 00:12:05;;;;;;;42.73;18.23;;;-0.10;99.90;;;;;;10409800;28;20642;-83
2022/03/08 00:17:06;;;;;;;38.03;18.53;;;-0.20;99.90;;;;;;10410020;28;20064;-84
2022/03/08 00:22:06;;;;;;;43.47;19.27;;;-0.20;99.90;;;;;;10408651;28;20064;-84
2022/03/08 00:27:07;;;;;;;42.53;18.23;;;-0.20;99.90;;;;;;10409282;28;20033;-83
2022/03/08 00:32:08;;;;;;;45.17;18.80;;;-0.20;99.90;;;;;;10408352;28;20120;-84
2022/03/08 00:37:09;;;;;;;43.37;18.37;;;-0.30;99.90;;;;;;10408931;28;20033;-84
2022/03/08 00:42:11;;;;;;;40.60;17.17;;;-0.40;99.90;;;;;;10408320;28;20385;-84
2022/03/08 00:47:12;;;;;;;40.00;18.20;;;-0.40;99.90;;;;;;10408345;28;20393;-85
2022/03/08 00:52:13;;;;;;;40.17;17.80;;;-0.40;99.90;;;;;;10408227;28;20052;-83
2022/03/08 00:57:14;;;;;;;43.27;18.43;;;-0.50;99.90;;;;;;10407703;28;20531;-84
2022/03/08 01:02:14;;;;;;;38.80;16.87;;;-0.50;99.90;;;;;;10390448;28;20493;-83
2022/03/08 01:07:17;;;;;;;48.43;18.33;;;-0.50;99.90;;;;;;10390285;28;20049;-84
2022/03/08 01:12:17;;;;;;;39.80;17.27;;;-0.50;99.90;;;;;;10408185;28;20038;-85
2022/03/08 01:17:18;;;;;;;38.30;17.03;;;-0.60;99.90;;;;;;10408137;28;20597;-83
2022/03/08 01:22:19;;;;;;;40.77;17.67;;;-0.60;99.90;;;;;;10407753;28;20477;-84
2022/03/08 01:27:20;;;;;;;35.73;15.50;;;-0.60;99.90;;;;;;10408002;28;20053;-83
2022/03/08 01:32:21;;;;;;;37.73;16.40;;;-0.70;99.90;;;;;;10406679;28;20336;-84
2022/03/08 01:37:21;;;;;;;40.33;16.20;;;-0.60;99.90;;;;;;10407252;28;20127;-83
2022/03/08 01:42:24;;;;;;;35.50;16.10;;;-0.70;99.90;;;;;;10410562;28;20120;-83
2022/03/08 01:47:26;;;;;;;36.77;15.90;;;-0.70;99.90;;;;;;10414872;28;20112;-85
2022/03/08 01:52:28;;;;;;;36.17;17.23;;;-0.80;99.90;;;;;;10415603;28;20045;-83
2022/03/08 01:57:28;;;;;;;34.37;16.13;;;-0.80;99.90;;;;;;10408477;28;20038;-84
2022/03/08 02:02:29;;;;;;;41.90;18.00;;;-0.80;99.90;;;;;;10414244;28;20033;-84
2022/03/08 02:07:30;;;;;;;39.20;16.47;;;-0.80;99.90;;;;;;10414994;28;20148;-84
2022/03/08 02:12:30;;;;;;;31.00;15.00;;;-0.90;99.90;;;;;;10413800;28;20041;-84
2022/03/08 02:17:31;;;;;;;32.67;14.37;;;-0.90;99.90;;;;;;10414079;28;20038;-84
2022/03/08 02:22:32;;;;;;;34.93;14.40;;;-1.00;99.90;;;;;;10414616;28;20079;-84
2022/03/08 02:27:33;;;;;;;29.47;12.17;;;-1.00;99.90;;;;;;10413300;28;20040;-84
2022/03/08 02:32:34;;;;;;;28.87;12.53;;;-1.00;99.90;;;;;;10413898;28;20033;-85
2022/03/08 02:38:03;;;;;;;28.17;13.90;;;-1.00;99.90;;;;;;10412892;28;20033;-84
2022/03/08 02:43:05;;;;;;;27.73;11.63;;;-1.00;99.90;;;;;;10370859;28;20069;-83
2022/03/08 02:48:06;;;;;;;28.73;13.70;;;-1.00;99.90;;;;;;10392271;28;20091;-84
2022/03/08 02:53:07;;;;;;;29.27;13.00;;;-1.10;99.90;;;;;;10411306;28;20037;-85
2022/03/08 02:58:08;;;;;;;33.43;15.10;;;-1.10;99.90;;;;;;10412988;28;20079;-84
2022/03/08 03:03:09;;;;;;;37.13;15.23;;;-1.20;99.90;;;;;;10412344;28;20029;-84
2022/03/08 03:08:10;;;;;;;32.53;15.63;;;-1.20;99.90;;;;;;10412225;28;20137;-86
2022/03/08 03:13:11;;;;;;;30.50;14.13;;;-1.30;99.90;;;;;;10411998;28;20037;-85
2022/03/08 03:18:12;;;;;;;45.63;18.90;;;-1.30;99.90;;;;;;10411956;28;20393;-85
2022/03/08 03:23:12;;;;;;;35.67;15.47;;;-1.40;99.90;;;;;;10405021;28;20675;-85
2022/03/08 03:28:13;;;;;;;36.03;15.77;;;-1.50;99.90;;;;;;10411147;28;20033;-85
2022/03/08 03:33:14;;;;;;;30.97;14.03;;;-1.50;99.90;;;;;;10411395;28;20484;-86
2022/03/08 03:38:14;;;;;;;36.30;15.53;;;-1.50;99.90;;;;;;10410531;28;20033;-84
2022/03/08 03:43:15;;;;;;;36.73;14.53;;;-1.50;99.90;;;;;;10411635;28;20052;-85
2022/03/08 03:48:16;;;;;;;30.73;14.40;;;-1.60;99.90;;;;;;10410844;28;20117;-85
2022/03/08 03:53:16;;;;;;;35.37;15.20;;;-1.60;99.90;;;;;;10410542;28;20021;-85
2022/03/08 03:58:17;;;;;;;31.63;14.13;;;-1.70;99.90;;;;;;10410993;28;20037;-85
2022/03/08 04:03:19;;;;;;;31.10;15.43;;;-1.70;99.90;;;;;;10390787;28;20037;-85
2022/03/08 04:08:20;;;;;;;34.63;15.90;;;-1.80;99.90;;;;;;10409646;28;20059;-84
2022/03/08 04:13:21;;;;;;;36.80;16.60;;;-1.80;99.90;;;;;;10409891;28;20485;-86
2022/03/08 04:18:21;;;;;;;38.60;17.20;;;-1.80;99.90;;;;;;10409398;28;20075;-85
2022/03/08 04:23:22;;;;;;;45.70;18.57;;;-1.80;99.90;;;;;;10409319;28;20505;-83
2022/03/08 04:28:23;;;;;;;36.03;16.10;;;-1.90;99.90;;;;;;10408053;28;20045;-83
2022/03/08 04:33:23;;;;;;;37.00;16.80;;;-1.80;99.90;;;;;;10409160;28;20453;-84
2022/03/08 04:38:24;;;;;;;37.50;17.20;;;-1.70;99.90;;;;;;10408190;28;20519;-83
2022/03/08 04:43:25;;;;;;;40.40;18.97;;;-1.70;99.90;;;;;;10391743;28;20067;-83
2022/03/08 04:48:26;;;;;;;40.83;17.17;;;-1.70;99.90;;;;;;10408498;28;20037;-83
2022/03/08 04:53:26;;;;;;;38.97;17.97;;;-1.60;99.90;;;;;;10389412;28;20033;-84
2022/03/08 04:58:27;;;;;;;42.80;18.17;;;-1.50;99.90;;;;;;10407379;28;20480;-83
2022/03/08 05:03:28;;;;;;;45.43;19.27;;;-1.40;99.90;;;;;;10422139;28;20041;-83
2022/03/08 05:08:28;;;;;;;41.30;19.00;;;-1.40;99.90;;;;;;10407211;28;20552;-84
2022/03/08 05:13:30;;;;;;;40.97;19.63;;;-1.40;99.90;;;;;;10403801;28;20033;-86
2022/03/08 05:18:31;;;;;;;44.43;20.13;;;-1.40;99.90;;;;;;10412896;28;20045;-83
2022/03/08 05:23:31;;;;;;;44.50;19.57;;;-1.40;99.90;;;;;;10400440;28;20512;-84
2022/03/08 05:28:33;;;;;;;53.27;21.00;;;-1.40;99.90;;;;;;10409991;28;20048;-84
2022/03/08 05:33:33;;;;;;;48.13;21.07;;;-1.30;99.90;;;;;;10386552;28;20040;-85
2022/03/08 05:38:34;;;;;;;43.03;20.83;;;-1.30;99.90;;;;;;10392411;28;20377;-84
2022/03/08 05:43:34;;;;;;;77.60;26.37;;;-1.20;99.90;;;;;;10372252;28;20033;-85
2022/03/08 05:48:35;;;;;;;48.60;23.37;;;-1.20;99.90;;;;;;10386917;28;20117;-84
2022/03/08 05:53:36;;;;;;;51.50;23.90;;;-1.10;99.90;;;;;;10405566;28;20030;-84
2022/03/08 05:58:37;;;;;;;53.47;22.53;;;-1.10;99.90;;;;;;10407486;28;20073;-84
2022/03/08 06:03:38;;;;;;;56.07;22.90;;;-1.00;99.90;;;;;;10407434;28;20678;-84
2022/03/08 06:08:39;;;;;;;49.23;21.90;;;-1.00;99.90;;;;;;10408064;28;20064;-84
2022/03/08 06:13:39;;;;;;;45.60;21.10;;;-0.90;99.90;;;;;;10407587;28;20033;-85
2022/03/08 06:18:44;;;;;;;52.17;22.57;;;-0.80;99.90;;;;;;10407567;28;20041;-85
2022/03/08 06:23:44;;;;;;;59.30;25.53;;;-0.80;99.90;;;;;;10389401;28;20038;-85
2022/03/08 06:28:45;;;;;;;65.80;26.77;;;-0.80;99.90;;;;;;10393045;28;20041;-84
2022/03/08 06:33:46;;;;;;;60.93;25.57;;;-0.70;99.90;;;;;;10414422;28;20029;-84
2022/03/08 06:38:46;;;;;;;58.67;26.03;;;-0.70;99.90;;;;;;10414309;28;20034;-84
2022/03/08 06:43:47;;;;;;;63.93;26.50;;;-0.50;99.90;;;;;;10413488;28;20097;-84
2022/03/08 06:48:48;;;;;;;57.90;26.37;;;-0.50;99.90;;;;;;10413463;28;20366;-85
2022/03/08 06:53:48;;;;;;;59.63;26.17;;;-0.30;99.90;;;;;;10413694;28;20040;-85
2022/03/08 06:58:49;;;;;;;60.90;24.80;;;-0.10;99.90;;;;;;10413615;28;20068;-84
2022/03/08 07:03:50;;;;;;;51.00;24.20;;;0.10;99.90;;;;;;10395208;28;20025;-85
2022/03/08 07:08:53;;;;;;;57.70;24.63;;;0.30;99.90;;;;;;10412319;28;20045;-85
2022/03/08 07:13:54;;;;;;;47.67;22.23;;;0.30;99.90;;;;;;10413027;28;20029;-84
2022/03/08 07:18:55;;;;;;;52.60;22.23;;;0.40;99.90;;;;;;10394506;28;20026;-84
2022/03/08 07:23:55;;;;;;;45.87;21.30;;;0.50;99.90;;;;;;10412255;28;20021;-85
2022/03/08 07:28:56;;;;;;;46.77;21.33;;;0.60;99.90;;;;;;10411653;28;20045;-84
2022/03/08 07:33:57;;;;;;;50.00;21.33;;;0.70;99.90;;;;;;10411706;28;20037;-84
2022/03/08 07:38:58;;;;;;;58.83;22.37;;;0.80;99.90;;;;;;10392804;28;20030;-84
2022/03/08 07:44:01;;;;;;;49.70;22.00;;;0.80;99.90;;;;;;10411184;28;20108;-84
2022/03/08 07:49:01;;;;;;;52.77;21.50;;;1.00;99.90;;;;;;10411681;28;20053;-84
2022/03/08 07:54:02;;;;;;;52.57;23.17;;;1.00;99.90;;;;;;10410781;28;20104;-84
2022/03/08 07:59:03;;;;;;;53.37;23.03;;;1.10;99.90;;;;;;10410900;28;20493;-84
2022/03/08 08:04:04;;;;;;;50.87;23.67;;;1.20;99.90;;;;;;10410488;28;20040;-84
2022/03/08 08:09:04;;;;;;;50.03;21.10;;;1.30;99.90;;;;;;10410573;28;20460;-84
2022/03/08 08:14:05;;;;;;;47.53;18.60;;;1.40;99.90;;;;;;10411328;28;20465;-83
2022/03/08 08:19:06;;;;;;;48.67;19.03;;;1.50;99.90;;;;;;10410762;28;20030;-85
2022/03/08 08:24:07;;;;;;;49.43;18.57;;;1.60;99.90;;;;;;10410013;28;20091;-84
2022/03/08 08:29:08;;;;;;;37.17;16.27;;;1.60;99.90;;;;;;10409416;28;20440;-83
2022/03/08 08:34:08;;;;;;;39.47;17.07;;;1.60;99.90;;;;;;10409344;28;20099;-84
2022/03/08 08:39:09;;;;;;;36.87;17.33;;;1.70;99.90;;;;;;10409622;28;20026;-84
2022/03/08 08:44:11;;;;;;;36.60;15.17;;;1.90;99.90;;;;;;10408997;28;20037;-83
2022/03/08 08:49:12;;;;;;;22.90;10.93;;;2.00;99.90;;;;;;10409022;28;20485;-83
2022/03/08 08:54:13;;;;;;;23.20;10.53;;;2.10;99.90;;;;;;10409119;28;20069;-83
2022/03/08 08:59:14;;;;;;;22.13;11.10;;;2.10;99.90;;;;;;10391281;28;20051;-84
2022/03/08 09:04:15;;;;;;;21.07;11.10;;;2.20;99.90;;;;;;10408304;28;20025;-83
2022/03/08 09:09:16;;;;;;;24.10;10.10;;;2.30;99.90;;;;;;10390694;28;20033;-83
2022/03/08 09:14:16;;;;;;;19.10;9.17;;;2.20;99.90;;;;;;10408572;28;20026;-84
2022/03/08 09:19:17;;;;;;;18.43;9.77;;;2.10;99.90;;;;;;10408237;28;20424;-83
2022/03/08 09:24:18;;;;;;;17.50;9.33;;;2.30;99.90;;;;;;10407958;28;20029;-84
2022/03/08 09:29:18;;;;;;;17.87;9.93;;;2.40;99.90;;;;;;10390018;28;20069;-82
2022/03/08 09:34:19;;;;;;;23.53;10.87;;;2.60;99.90;;;;;;10407683;28;20041;-83
2022/03/08 09:39:20;;;;;;;16.83;8.43;;;2.70;99.90;;;;;;10408882;28;20057;-84
2022/03/08 09:44:21;;;;;;;15.83;9.10;;;2.80;99.90;;;;;;10407978;28;20479;-83
2022/03/08 09:49:22;;;;;;;17.40;8.60;;;2.60;99.90;;;;;;10408072;28;20034;-84
2022/03/08 09:54:23;;;;;;;18.13;9.77;;;2.50;99.90;;;;;;10407346;28;20044;-82
2022/03/08 09:59:29;;;;;;;19.60;9.43;;;2.70;99.90;;;;;;10407148;28;20033;-82
2022/03/08 10:04:30;;;;;;;20.87;9.37;;;3.10;99.90;;;;;;10413133;28;20136;-83
2022/03/08 10:09:30;;;;;;;21.63;9.27;;;3.40;99.90;;;;;;10414900;28;20029;-83
2022/03/08 10:14:39;;;;;;;17.03;8.17;;;4.10;99.90;;;;;;10415416;28;20025;-83
2022/03/08 10:19:47;;;;;;;15.37;7.90;;;4.50;99.90;;;;;;10397164;28;20525;-84
2022/03/08 10:24:48;;;;;;;23.23;10.20;;;4.30;94.40;;;;;;10414673;28;20026;-84
2022/03/08 10:29:50;;;;;;;14.87;7.67;;;4.00;95.10;;;;;;10414394;28;20037;-83
2022/03/08 10:34:58;;;;;;;16.03;8.13;;;4.30;97.50;;;;;;10414267;28;20076;-82
2022/03/08 10:40:03;;;;;;;16.53;6.97;;;4.80;93.60;;;;;;10414197;28;20080;-83
2022/03/08 10:45:10;;;;;;;12.93;6.68;;;4.60;89.80;;;;;;10395777;28;20037;-84
2022/03/08 10:50:13;;;;;;;11.87;5.97;;;4.20;89.70;;;;;;10413578;28;20038;-82
2022/03/08 10:55:37;;;;;;;11.33;5.83;;;4.00;91.00;;;;;;10414108;28;20103;-83
2022/03/08 11:00:53;;;;;;;13.70;7.87;;;4.60;90.20;;;;;;10413762;28;20053;-83
2022/03/08 11:05:55;;;;;;;10.48;4.88;;;4.80;90.40;;;;;;10412856;28;20099;-83
2022/03/08 11:10:56;;;;;;;14.60;6.00;;;4.50;84.60;;;;;;10412819;28;20113;-84
2022/03/08 11:15:57;;;;;;;11.73;6.83;;;4.30;87.40;;;;;;10411234;28;20100;-83
2022/03/08 11:20:58;;;;;;;15.70;7.30;;;4.30;88.20;;;;;;10412296;28;20018;-83
2022/03/08 11:26:01;;;;;;;13.30;6.17;;;5.10;90.30;;;;;;10413066;28;20413;-83
2022/03/08 11:31:01;;;;;;;10.77;6.07;;;5.60;86.70;;;;;;10411817;28;20205;-82
2022/03/08 11:36:30;;;;;;;13.93;6.00;;;5.50;84.10;;;;;;10394266;28;20192;-83
2022/03/08 11:41:31;;;;;;;9.90;5.53;;;5.00;83.40;;;;;;10412034;28;20021;-83
2022/03/08 11:46:32;;;;;;;14.00;7.40;;;4.80;84.90;;;;;;10393974;28;20025;-82
2022/03/08 11:51:33;;;;;;;11.90;6.30;;;4.90;86.20;;;;;;10411542;28;20037;-84
2022/03/08 11:56:51;;;;;;;11.50;5.33;;;5.40;83.80;;;;;;10411407;28;20104;-84
2022/03/08 12:01:54;;;;;;;10.67;5.87;;;5.10;81.50;;;;;;10410812;28;20424;-83
2022/03/08 12:07:00;;;;;;;10.87;6.07;;;5.00;84.40;;;;;;10410488;28;20054;-83
2022/03/08 12:12:03;;;;;;;14.98;5.78;;;5.40;84.10;;;;;;10410787;28;20032;-84
2022/03/08 12:17:18;;;;;;;10.93;5.63;;;5.70;80.90;;;;;;10410066;28;20025;-84
2022/03/08 12:22:21;;;;;;;11.07;5.97;;;5.60;79.60;;;;;;10410504;28;20036;-83
2022/03/08 12:27:24;;;;;;;13.67;7.40;;;5.60;80.40;;;;;;10410026;28;20116;-84
2022/03/08 12:32:36;;;;;;;14.03;7.17;;;6.10;82.30;;;;;;10409520;28;20048;-83
2022/03/08 12:37:42;;;;;;;28.30;14.40;;;6.20;79.80;;;;;;10409478;28;20084;-83
2022/03/08 12:42:51;;;;;;;19.27;10.40;;;5.90;80.20;;;;;;10409590;28;20377;-84
2022/03/08 12:48:13;;;;;;;18.40;8.67;;;5.80;83.10;;;;;;10408993;28;20094;-83
2022/03/08 12:53:27;;;;;;;12.90;5.80;;;6.30;83.50;;;;;;10409312;28;20087;-82
2022/03/08 12:58:30;;;;;;;18.40;10.73;;;6.40;79.10;;;;;;10409232;28;20041;-83
2022/03/08 13:03:34;;;;;;;15.70;7.23;;;6.10;79.50;;;;;;10391431;28;20061;-84
2022/03/08 13:08:37;;;;;;;20.73;9.73;;;5.70;79.00;;;;;;10408817;28;20670;-83
2022/03/08 13:13:43;;;;;;;23.23;10.83;;;5.80;81.40;;;;;;10406317;28;20424;-83
2022/03/08 13:18:43;;;;;;;12.02;5.68;;;6.00;79.30;;;;;;10408035;28;20432;-83
2022/03/08 13:23:45;;;;;;;26.23;13.57;;;5.70;78.10;;;;;;10407709;28;20096;-84
2022/03/08 13:28:46;;;;;;;19.60;10.17;;;5.80;81.50;;;;;;10407472;28;20038;-87
2022/03/08 13:33:49;;;;;;;17.93;10.33;;;5.90;80.90;;;;;;10406997;28;20408;-85
2022/03/08 13:38:52;;;;;;;19.90;10.60;;;5.80;79.70;;;;;;10412704;28;20071;-84
2022/03/08 13:43:59;;;;;;;20.57;11.10;;;6.00;81.80;;;;;;10415389;28;20026;-83
2022/03/08 13:49:06;;;;;;;21.40;11.10;;;6.20;81.20;;;;;;10414013;28;20122;-84
2022/03/08 13:54:09;;;;;;;30.90;15.90;;;6.20;80.80;;;;;;10396244;28;20055;-85
2022/03/08 13:59:11;;;;;;;31.53;15.67;;;6.10;81.00;;;;;;10413510;28;20108;-83
2022/03/08 14:04:26;;;;;;;39.90;27.20;;;6.00;79.70;;;;;;10409698;28;20036;-85
2022/03/08 14:09:27;;;;;;;58.90;26.70;;;5.80;81.00;;;;;;10405949;28;20540;-83
2022/03/08 14:14:29;;;;;;;51.77;25.37;;;5.90;81.00;;;;;;10414673;28;20033;-82
2022/03/08 14:19:47;;;;;;;25.57;15.70;;;5.70;81.30;;;;;;10397283;28;20032;-86
2022/03/08 14:24:59;;;;;;;49.67;21.47;;;5.70;81.40;;;;;;10387170;28;20557;-84
2022/03/08 14:30:06;;;;;;;27.97;15.37;;;5.70;81.40;;;;;;10414841;28;20029;-84
2022/03/08 14:35:16;;;;;;;37.40;19.63;;;5.60;80.80;;;;;;10400789;28;20037;-84
2022/03/08 14:40:44;;;;;;;11.00;6.60;;;5.70;80.90;;;;;;10407743;28;20091;-86
2022/03/08 14:45:45;;;;;;;14.17;6.73;;;5.60;79.00;;;;;;10388957;28;20037;-82
2022/03/08 14:50:45;;;;;;;13.23;6.30;;;5.40;79.30;;;;;;10395245;28;20029;-83
2022/03/08 14:55:46;;;;;;;13.10;7.23;;;5.20;80.40;;;;;;10413211;28;20384;-83
2022/03/08 15:00:47;;;;;;;11.90;6.40;;;5.20;80.80;;;;;;10413187;28;20044;-83
2022/03/08 15:05:47;;;;;;;15.93;7.13;;;5.10;81.20;;;;;;10388581;28;20041;-82
2022/03/08 15:10:48;;;;;;;11.27;7.10;;;4.90;81.60;;;;;;10373491;28;20488;-82
2022/03/08 15:15:50;;;;;;;12.53;6.87;;;4.80;81.10;;;;;;10412059;28;20091;-83
2022/03/08 15:20:50;;;;;;;14.90;8.27;;;4.70;81.80;;;;;;10412987;28;20033;-84
2022/03/08 15:25:51;;;;;;;17.00;8.47;;;4.50;82.20;;;;;;10409351;28;20112;-83
2022/03/08 15:30:53;;;;;;;14.10;7.63;;;4.50;82.00;;;;;;10392088;28;20560;-83
2022/03/08 15:35:54;;;;;;;14.33;7.50;;;4.40;82.80;;;;;;10392478;28;20033;-82
2022/03/08 15:40:55;;;;;;;13.60;6.77;;;4.20;82.20;;;;;;10391517;28;20037;-82
2022/03/08 15:45:56;;;;;;;13.80;6.97;;;4.20;82.50;;;;;;10411019;28;20037;-84
2022/03/08 15:50:57;;;;;;;13.33;6.97;;;4.10;83.10;;;;;;10393968;28;20451;-85
2022/03/08 15:55:59;;;;;;;14.23;7.00;;;4.10;83.30;;;;;;10391624;28;20069;-83
2022/03/08 16:01:00;;;;;;;12.30;7.07;;;4.00;82.80;;;;;;10390641;28;20044;-83
2022/03/08 16:06:01;;;;;;;13.33;7.40;;;3.90;83.00;;;;;;10409806;28;20056;-83
2022/03/08 16:11:03;;;;;;;16.73;7.50;;;3.80;83.70;;;;;;10409864;28;20069;-84
2022/03/08 16:16:05;;;;;;;17.03;8.13;;;3.70;84.10;;;;;;10410122;28;20465;-85
2022/03/08 16:21:06;;;;;;;13.97;7.50;;;3.60;84.60;;;;;;10409913;28;20462;-82
2022/03/08 16:26:07;;;;;;;14.77;7.67;;;3.50;84.90;;;;;;10410077;28;20046;-86
2022/03/08 16:31:08;;;;;;;15.97;7.77;;;3.40;85.50;;;;;;10389589;28;20041;-84
2022/03/08 16:36:09;;;;;;;16.33;8.77;;;3.30;86.90;;;;;;10408749;28;20025;-84
2022/03/08 16:41:10;;;;;;;13.90;7.37;;;3.30;86.20;;;;;;10390507;28;20033;-81
2022/03/08 16:46:11;;;;;;;15.63;7.43;;;3.20;86.30;;;;;;10409599;28;20069;-82
2022/03/08 16:51:12;;;;;;;16.10;8.50;;;3.20;86.40;;;;;;10410709;28;20521;-81
2022/03/08 16:56:13;;;;;;;14.20;7.60;;;3.20;86.70;;;;;;10406896;28;20037;-83
2022/03/08 17:01:13;;;;;;;21.47;9.97;;;3.20;87.10;;;;;;10376492;28;20473;-86
2022/03/08 17:06:14;;;;;;;18.93;9.77;;;3.20;87.50;;;;;;10404782;28;20053;-84
2022/03/08 17:11:15;;;;;;;23.13;10.57;;;3.10;88.10;;;;;;10375621;28;20048;-85
2022/03/08 17:16:16;;;;;;;24.17;11.27;;;3.00;88.60;;;;;;10408569;28;20057;-84
2022/03/08 17:21:17;;;;;;;21.53;11.70;;;2.90;89.10;;;;;;10404125;28;20037;-85
2022/03/08 17:26:17;;;;;;;21.70;11.50;;;2.80;89.50;;;;;;10395887;28;20021;-84
2022/03/08 17:31:18;;;;;;;25.17;12.33;;;2.70;90.10;;;;;;10407505;28;20041;-85
2022/03/08 17:36:19;;;;;;;26.83;13.27;;;2.50;90.50;;;;;;10408225;28;20676;-84
2022/03/08 17:41:19;;;;;;;23.03;13.23;;;2.40;91.00;;;;;;10400107;28;20037;-84
2022/03/08 17:46:20;;;;;;;26.17;13.30;;;2.40;91.60;;;;;;10374857;28;20034;-84
2022/03/08 17:51:21;;;;;;;28.83;16.53;;;2.30;92.10;;;;;;10382260;28;20064;-83
2022/03/08 17:56:23;;;;;;;29.80;15.27;;;2.20;92.40;;;;;;10381637;28;20363;-84
2022/03/08 18:01:24;;;;;;;35.53;16.73;;;2.20;93.00;;;;;;10374427;28;20029;-84
2022/03/08 18:06:25;;;;;;;45.63;21.93;;;2.00;94.50;;;;;;10390733;28;20170;-83
2022/03/08 18:11:25;;;;;;;51.00;24.40;;;1.80;95.90;;;;;;10367520;28;20037;-83
2022/03/08 18:16:26;;;;;;;56.03;28.20;;;1.90;96.40;;;;;;10384336;28;20254;-83
2022/03/08 18:21:27;;;;;;;72.40;33.73;;;2.00;97.00;;;;;;10415476;28;20048;-85
2022/03/08 18:26:27;;;;;;;83.73;36.17;;;2.00;97.20;;;;;;10413268;28;20045;-84
2022/03/08 18:31:28;;;;;;;85.53;37.60;;;2.00;97.30;;;;;;10438577;28;20135;-84
2022/03/08 18:36:29;;;;;;;72.67;29.53;;;2.00;97.20;;;;;;10394880;28;20072;-83
2022/03/08 18:41:31;;;;;;;62.73;29.03;;;1.90;97.30;;;;;;10409257;28;20365;-83
2022/03/08 18:46:32;;;;;;;51.70;25.90;;;1.80;97.60;;;;;;10419070;28;20097;-83
2022/03/08 18:51:32;;;;;;;60.43;27.87;;;1.60;98.20;;;;;;10412284;28;20034;-84
2022/03/08 18:56:34;;;;;;;62.00;28.33;;;1.50;98.80;;;;;;10393431;28;20052;-84
2022/03/08 19:01:36;;;;;;;48.53;22.87;;;1.40;99.30;;;;;;10401079;28;20034;-84
2022/03/08 19:06:37;;;;;;;46.27;23.63;;;1.10;99.90;;;;;;10407966;28;20050;-83
2022/03/08 19:11:38;;;;;;;53.63;23.13;;;1.00;99.90;;;;;;10408619;28;20041;-84
2022/03/08 19:16:38;;;;;;;49.53;22.03;;;1.00;99.90;;;;;;10385631;28;20495;-86
2022/03/08 19:21:39;;;;;;;40.73;20.33;;;1.10;99.90;;;;;;10409790;28;20044;-85
2022/03/08 19:26:40;;;;;;;41.23;20.17;;;1.10;99.90;;;;;;10412028;28;20041;-83
2022/03/08 19:31:41;;;;;;;40.27;20.07;;;1.00;99.90;;;;;;10410722;28;20378;-83
2022/03/08 19:36:43;;;;;;;45.33;21.03;;;1.00;99.90;;;;;;10411257;28;20041;-85
2022/03/08 19:41:44;;;;;;;49.80;22.80;;;0.90;99.90;;;;;;10411381;28;20116;-83
2022/03/08 19:46:44;;;;;;;57.23;25.37;;;0.70;99.90;;;;;;10410083;28;20112;-83
2022/03/08 19:51:45;;;;;;;53.23;24.53;;;0.60;99.90;;;;;;10410580;28;20041;-86
2022/03/08 19:56:47;;;;;;;58.50;28.30;;;0.50;99.90;;;;;;10411614;28;20033;-83
2022/03/08 20:01:48;;;;;;;57.37;27.10;;;0.50;99.90;;;;;;10410044;28;20037;-85
2022/03/08 20:06:48;;;;;;;49.43;24.33;;;0.40;99.90;;;;;;10410047;28;20496;-83
2022/03/08 20:11:50;;;;;;;45.00;22.77;;;0.30;99.90;;;;;;10389002;28;20039;-84
2022/03/08 20:16:51;;;;;;;47.30;23.13;;;0.20;99.90;;;;;;10408454;28;20030;-84
2022/03/08 20:21:51;;;;;;;45.93;23.73;;;0.10;99.90;;;;;;10408929;28;20084;-85
2022/03/08 20:26:53;;;;;;;51.17;25.23;;;0.10;99.90;;;;;;10403607;28;20029;-87
2022/03/08 20:31:54;;;;;;;51.63;26.03;;;-0.10;99.90;;;;;;10390120;28;20625;-86
2022/03/08 20:36:56;;;;;;;55.60;25.83;;;-0.20;99.90;;;;;;10408204;28;20025;-87
2022/03/08 20:41:57;;;;;;;58.97;27.87;;;-0.30;99.90;;;;;;10408567;28;20048;-84
2022/03/08 20:46:58;;;;;;;55.63;28.00;;;-0.40;99.90;;;;;;10393487;28;20883;-86
2022/03/08 20:51:58;;;;;;;65.60;29.83;;;-0.50;99.90;;;;;;10413159;28;20060;-85
2022/03/08 20:56:59;;;;;;;65.30;30.53;;;-0.50;99.90;;;;;;10408812;28;20463;-86
2022/03/08 21:02:00;;;;;;;64.13;30.33;;;-0.70;99.90;;;;;;10407285;28;20411;-85
2022/03/08 21:07:01;;;;;;;66.97;28.63;;;-0.70;99.90;;;;;;10407270;28;20067;-86
2022/03/08 21:12:02;;;;;;;67.57;29.83;;;-0.60;99.90;;;;;;10388498;28;20037;-86
2022/03/08 21:17:03;;;;;;;66.53;31.87;;;-0.70;99.90;;;;;;10411232;28;20087;-85
2022/03/08 21:22:05;;;;;;;76.40;32.60;;;-0.70;99.90;;;;;;10407645;28;20060;-88
2022/03/08 21:27:06;;;;;;;65.43;29.43;;;-0.70;99.90;;;;;;10399324;28;20034;-86
2022/03/08 21:32:07;;;;;;;59.73;28.13;;;-0.60;99.90;;;;;;10412308;28;20655;-85
2022/03/08 21:37:08;;;;;;;60.30;27.97;;;-0.40;99.90;;;;;;10409659;28;20036;-86
2022/03/08 21:42:08;;;;;;;60.63;27.70;;;-0.30;99.90;;;;;;10410770;28;20083;-86
2022/03/08 21:47:09;;;;;;;67.10;26.43;;;-0.40;99.90;;;;;;10409820;28;20027;-86
2022/03/08 21:52:10;;;;;;;51.57;26.03;;;-0.50;99.90;;;;;;10403853;28;20041;-85
2022/03/08 21:57:10;;;;;;;55.60;26.57;;;-0.50;99.90;;;;;;10403833;28;20486;-87
2022/03/08 22:02:12;;;;;;;53.70;25.93;;;-0.40;99.90;;;;;;10418760;28;20084;-85
2022/03/08 22:07:12;;;;;;;52.87;26.17;;;-0.30;99.90;;;;;;10397298;28;20041;-88
2022/03/08 22:12:13;;;;;;;51.23;25.40;;;-0.20;99.90;;;;;;10405376;28;20393;-87
2022/03/08 22:17:14;;;;;;;55.50;25.23;;;-0.10;99.90;;;;;;10396567;28;20035;-86
2022/03/08 22:22:16;;;;;;;50.67;25.20;;;0.10;99.90;;;;;;10410316;28;20108;-86
2022/03/08 22:27:21;;;;;;;51.20;24.40;;;0.20;99.90;;;;;;10412496;28;20555;-86
2022/03/08 22:32:22;;;;;;;47.83;24.40;;;0.30;99.90;;;;;;10412427;28;20047;-87
2022/03/08 22:37:22;;;;;;;48.20;23.73;;;0.40;99.90;;;;;;10414573;28;20041;-86
2022/03/08 22:42:23;;;;;;;44.50;22.67;;;0.60;99.90;;;;;;10413996;28;20500;-85
2022/03/08 22:47:24;;;;;;;44.40;22.43;;;0.90;99.90;;;;;;10414197;28;20113;-86
2022/03/08 22:52:25;;;;;;;54.80;26.17;;;0.90;99.90;;;;;;10428889;28;20038;-86
2022/03/08 22:57:27;;;;;;;47.60;23.53;;;1.00;99.90;;;;;;10413370;28;20033;-86
2022/03/08 23:02:27;;;;;;;41.80;19.63;;;1.10;99.90;;;;;;10411801;28;20036;-86
2022/03/08 23:07:28;;;;;;;42.57;20.70;;;1.20;99.90;;;;;;10415360;28;20064;-86
2022/03/08 23:12:29;;;;;;;44.10;21.07;;;1.30;99.90;;;;;;10412180;28;20041;-87
2022/03/08 23:17:29;;;;;;;42.30;21.30;;;1.30;99.90;;;;;;10415207;28;20247;-88
2022/03/08 23:22:30;;;;;;;46.10;20.83;;;1.30;99.90;;;;;;10401118;28;20036;-86
2022/03/08 23:27:34;;;;;;;49.37;22.77;;;1.20;99.90;;;;;;10412122;28;20112;-86
2022/03/08 23:32:35;;;;;;;57.50;26.07;;;1.20;99.90;;;;;;10412110;28;20056;-86
2022/03/08 23:37:36;;;;;;;38.57;18.27;;;1.20;99.90;;;;;;10411664;28;20047;-87
2022/03/08 23:42:39;;;;;;;30.97;15.83;;;1.20;99.90;;;;;;10411354;28;20136;-86
2022/03/08 23:47:40;;;;;;;34.77;15.93;;;1.10;99.90;;;;;;10411756;28;20057;-86
2022/03/08 23:52:41;;;;;;;27.70;14.27;;;1.20;99.90;;;;;;10392942;28;20045;-86
2022/03/08 23:57:41;;;;;;;29.47;13.80;;;1.20;99.90;;;;;;10411316;28;20496;-88
